sensor_id;sensor_type;location;lat;lon;timestamp;pressure;altitude;pressure_sealevel;temperature;humidity
62697;BME280;48761;42.680;23.312;2023-03-17T00:01:19;94989.41;;;3.09;80.12
62697;BME280;48761;42.680;23.312;2023-03-17T00:03:46;95009.25;;;3.18;80.16
62697;BME280;48761;42.680;23.312;2023-03-17T00:06:20;95006.56;;;3.19;81.01
62697;BME280;48761;42.680;23.312;2023-03-17T00:08:49;95000.88;;;3.08;80.81
62697;BME280;48761;42.680;23.312;2023-03-17T00:11:16;95004.84;;;3.18;80.63
62697;BME280;48761;42.680;23.312;2023-03-17T00:13:43;95013.91;;;3.33;80.96
62697;BME280;48761;42.680;23.312;2023-03-17T00:16:16;95005.69;;;3.19;80.85
62697;BME280;48761;42.680;23.312;2023-03-17T00:18:43;95015.06;;;3.26;80.83
62697;BME280;48761;42.680;23.312;2023-03-17T00:21:11;95003.13;;;3.17;81.12
62697;BME280;48761;42.680;23.312;2023-03-17T00:23:38;95014.72;;;3.35;81.22
62697;BME280;48761;42.680;23.312;2023-03-17T00:26:04;95004.22;;;3.11;81.74
62697;BME280;48761;42.680;23.312;2023-03-17T00:28:30;95019.66;;;3.21;81.22
62697;BME280;48761;42.680;23.312;2023-03-17T00:30:58;95001.78;;;3.07;80.88
62697;BME280;48761;42.680;23.312;2023-03-17T00:33:28;94984.88;;;2.90;81.72
62697;BME280;48761;42.680;23.312;2023-03-17T00:35:56;94985.25;;;2.80;82.69
62697;BME280;48761;42.680;23.312;2023-03-17T00:38:21;95012.63;;;2.97;82.46
62697;BME280;48761;42.680;23.312;2023-03-17T00:40:47;94959.44;;;2.68;82.40
62697;BME280;48761;42.680;23.312;2023-03-17T00:43:13;95007.13;;;3.03;82.14
62697;BME280;48761;42.680;23.312;2023-03-17T00:45:40;94987.28;;;2.72;82.19
62697;BME280;48761;42.680;23.312;2023-03-17T00:48:14;95005.66;;;2.96;82.11
62697;BME280;48761;42.680;23.312;2023-03-17T00:50:41;95004.34;;;3.08;82.00
62697;BME280;48761;42.680;23.312;2023-03-17T00:53:12;94994.69;;;3.09;81.60
62697;BME280;48761;42.680;23.312;2023-03-17T00:55:39;95007.41;;;3.20;81.30
62697;BME280;48761;42.680;23.312;2023-03-17T00:58:13;95008.63;;;3.11;81.67
62697;BME280;48761;42.680;23.312;2023-03-17T01:00:40;95017.16;;;3.16;81.43
62697;BME280;48761;42.680;23.312;2023-03-17T01:03:09;95014.91;;;3.31;80.95
62697;BME280;48761;42.680;23.312;2023-03-17T01:05:35;95018.22;;;3.12;81.04
62697;BME280;48761;42.680;23.312;2023-03-17T01:08:01;95019.00;;;3.14;80.93
62697;BME280;48761;42.680;23.312;2023-03-17T01:10:27;95003.25;;;3.14;80.45
62697;BME280;48761;42.680;23.312;2023-03-17T01:12:56;95022.31;;;3.19;80.71
62697;BME280;48761;42.680;23.312;2023-03-17T01:15:24;95012.84;;;3.15;80.42
62697;BME280;48761;42.680;23.312;2023-03-17T01:17:51;95017.59;;;3.05;81.33
62697;BME280;48761;42.680;23.312;2023-03-17T01:20:20;95021.69;;;3.12;81.57
62697;BME280;48761;42.680;23.312;2023-03-17T01:22:47;95011.13;;;3.14;81.38
62697;BME280;48761;42.680;23.312;2023-03-17T01:25:13;95014.44;;;3.19;81.39
62697;BME280;48761;42.680;23.312;2023-03-17T01:27:40;95018.78;;;3.20;80.66
62697;BME280;48761;42.680;23.312;2023-03-17T01:30:19;95021.91;;;3.30;80.66
62697;BME280;48761;42.680;23.312;2023-03-17T01:32:46;95028.31;;;3.23;80.67
62697;BME280;48761;42.680;23.312;2023-03-17T01:35:12;95022.09;;;3.25;80.38
62697;BME280;48761;42.680;23.312;2023-03-17T01:37:39;95025.16;;;3.37;79.97
62697;BME280;48761;42.680;23.312;2023-03-17T01:40:07;95026.50;;;3.25;80.71
62697;BME280;48761;42.680;23.312;2023-03-17T01:42:34;95032.03;;;3.17;81.51
62697;BME280;48761;42.680;23.312;2023-03-17T01:45:03;95025.31;;;3.10;80.94
62697;BME280;48761;42.680;23.312;2023-03-17T01:47:29;95014.91;;;3.07;81.24
62697;BME280;48761;42.680;23.312;2023-03-17T01:49:57;95024.41;;;3.11;81.42
62697;BME280;48761;42.680;23.312;2023-03-17T01:52:26;95029.66;;;3.11;81.09
62697;BME280;48761;42.680;23.312;2023-03-17T01:57:33;95033.59;;;3.23;80.89
62697;BME280;48761;42.680;23.312;2023-03-17T02:00:12;95027.56;;;3.19;80.70
62697;BME280;48761;42.680;23.312;2023-03-17T02:02:41;95031.94;;;3.20;80.50
62697;BME280;48761;42.680;23.312;2023-03-17T02:05:11;95037.97;;;3.22;80.52
62697;BME280;48761;42.680;23.312;2023-03-17T02:07:39;95037.34;;;3.16;80.36
62697;BME280;48761;42.680;23.312;2023-03-17T02:10:06;95035.53;;;3.18;80.33
62697;BME280;48761;42.680;23.312;2023-03-17T02:12:33;95037.91;;;3.24;79.94
62697;BME280;48761;42.680;23.312;2023-03-17T02:14:59;95046.44;;;3.31;80.14
62697;BME280;48761;42.680;23.312;2023-03-17T02:17:26;95036.50;;;3.15;79.89
62697;BME280;48761;42.680;23.312;2023-03-17T02:19:53;95040.72;;;3.19;79.74
62697;BME280;48761;42.680;23.312;2023-03-17T02:22:19;95033.97;;;3.12;80.36
62697;BME280;48761;42.680;23.312;2023-03-17T02:24:56;95044.38;;;3.15;80.59
62697;BME280;48761;42.680;23.312;2023-03-17T02:27:27;95037.19;;;3.20;80.36
62697;BME280;48761;42.680;23.312;2023-03-17T02:29:56;95028.31;;;3.23;79.22
62697;BME280;48761;42.680;23.312;2023-03-17T02:32:22;95029.66;;;3.11;80.20
62697;BME280;48761;42.680;23.312;2023-03-17T02:34:48;95012.28;;;3.07;79.91
62697;BME280;48761;42.680;23.312;2023-03-17T02:37:15;95045.06;;;3.20;79.74
62697;BME280;48761;42.680;23.312;2023-03-17T02:39:41;95042.19;;;3.27;79.59
62697;BME280;48761;42.680;23.312;2023-03-17T02:42:08;95051.53;;;3.34;79.59
62697;BME280;48761;42.680;23.312;2023-03-17T02:44:34;95061.84;;;3.40;79.14
62697;BME280;48761;42.680;23.312;2023-03-17T02:47:01;95055.31;;;3.27;79.48
62697;BME280;48761;42.680;23.312;2023-03-17T02:49:28;95074.97;;;3.40;79.50
62697;BME280;48761;42.680;23.312;2023-03-17T02:51:55;95063.78;;;3.35;79.52
62697;BME280;48761;42.680;23.312;2023-03-17T02:54:21;95073.59;;;3.54;78.83
62697;BME280;48761;42.680;23.312;2023-03-17T02:56:47;95071.25;;;3.46;79.10
62697;BME280;48761;42.680;23.312;2023-03-17T02:59:12;95061.94;;;3.37;79.21
62697;BME280;48761;42.680;23.312;2023-03-17T03:01:38;95068.81;;;3.41;79.37
62697;BME280;48761;42.680;23.312;2023-03-17T03:04:05;95065.00;;;3.26;80.02
62697;BME280;48761;42.680;23.312;2023-03-17T03:06:31;95067.44;;;3.31;79.71
62697;BME280;48761;42.680;23.312;2023-03-17T03:08:57;95063.56;;;3.41;79.31
62697;BME280;48761;42.680;23.312;2023-03-17T03:11:23;95073.41;;;3.36;79.17
62697;BME280;48761;42.680;23.312;2023-03-17T03:13:49;95078.66;;;3.36;78.94
62697;BME280;48761;42.680;23.312;2023-03-17T03:16:15;95077.00;;;3.33;79.24
62697;BME280;48761;42.680;23.312;2023-03-17T03:18:41;95072.56;;;3.34;78.87
62697;BME280;48761;42.680;23.312;2023-03-17T03:21:07;95077.00;;;3.33;79.14
62697;BME280;48761;42.680;23.312;2023-03-17T03:23:33;95076.13;;;3.33;78.89
62697;BME280;48761;42.680;23.312;2023-03-17T03:25:59;95089.16;;;3.36;78.37
62697;BME280;48761;42.680;23.312;2023-03-17T03:28:25;95096.91;;;3.39;78.03
62697;BME280;48761;42.680;23.312;2023-03-17T03:30:51;95095.66;;;3.25;78.63
62697;BME280;48761;42.680;23.312;2023-03-17T03:33:17;95097.16;;;3.33;78.38
62697;BME280;48761;42.680;23.312;2023-03-17T03:35:43;95100.00;;;3.27;78.23
62697;BME280;48761;42.680;23.312;2023-03-17T03:38:10;95101.69;;;3.03;79.49
62697;BME280;48761;42.680;23.312;2023-03-17T03:40:36;95093.91;;;2.76;79.96
62697;BME280;48761;42.680;23.312;2023-03-17T03:43:03;95098.34;;;3.00;80.06
62697;BME280;48761;42.680;23.312;2023-03-17T03:45:29;95105.00;;;3.09;79.99
62697;BME280;48761;42.680;23.312;2023-03-17T03:47:55;95082.63;;;2.98;79.86
62697;BME280;48761;42.680;23.312;2023-03-17T03:50:21;95095.75;;;2.98;79.58
62697;BME280;48761;42.680;23.312;2023-03-17T03:52:47;95108.34;;;3.14;79.70
62697;BME280;48761;42.680;23.312;2023-03-17T03:55:13;95105.53;;;3.19;79.91
62697;BME280;48761;42.680;23.312;2023-03-17T03:57:39;95078.88;;;3.06;78.84
62697;BME280;48761;42.680;23.312;2023-03-17T04:00:06;95113.13;;;3.27;79.31
62697;BME280;48761;42.680;23.312;2023-03-17T04:02:32;95099.56;;;3.15;79.04
62697;BME280;48761;42.680;23.312;2023-03-17T04:04:58;95114.69;;;3.32;78.77
62697;BME280;48761;42.680;23.312;2023-03-17T04:07:24;95118.09;;;3.34;79.00
62697;BME280;48761;42.680;23.312;2023-03-17T04:09:50;95120.53;;;3.41;78.77
62697;BME280;48761;42.680;23.312;2023-03-17T04:12:16;95118.38;;;3.27;78.80
62697;BME280;48761;42.680;23.312;2023-03-17T04:14:43;95119.25;;;3.27;79.17
62697;BME280;48761;42.680;23.312;2023-03-17T04:17:10;95118.44;;;3.01;79.50
62697;BME280;48761;42.680;23.312;2023-03-17T04:19:36;95133.81;;;3.12;79.38
62697;BME280;48761;42.680;23.312;2023-03-17T04:22:04;95130.72;;;3.24;79.18
62697;BME280;48761;42.680;23.312;2023-03-17T04:24:30;95140.41;;;2.98;79.15
62697;BME280;48761;42.680;23.312;2023-03-17T04:26:56;95141.97;;;3.04;79.61
62697;BME280;48761;42.680;23.312;2023-03-17T04:29:22;95140.19;;;3.05;79.81
62697;BME280;48761;42.680;23.312;2023-03-17T04:31:48;95114.97;;;3.00;78.75
62697;BME280;48761;42.680;23.312;2023-03-17T04:34:15;95139.56;;;3.23;79.12
62697;BME280;48761;42.680;23.312;2023-03-17T04:36:43;95144.66;;;3.27;79.17
62697;BME280;48761;42.680;23.312;2023-03-17T04:39:09;95136.91;;;3.23;79.45
62697;BME280;48761;42.680;23.312;2023-03-17T04:41:35;95142.97;;;3.25;78.71
62697;BME280;48761;42.680;23.312;2023-03-17T04:44:01;95148.09;;;3.29;79.03
62697;BME280;48761;42.680;23.312;2023-03-17T04:46:27;95153.53;;;3.24;78.53
62697;BME280;48761;42.680;23.312;2023-03-17T04:48:53;95145.53;;;3.27;78.18
62697;BME280;48761;42.680;23.312;2023-03-17T04:51:19;95150.97;;;3.22;77.91
62697;BME280;48761;42.680;23.312;2023-03-17T04:53:45;95157.34;;;3.15;78.42
62697;BME280;48761;42.680;23.312;2023-03-17T04:56:11;95162.50;;;3.18;78.69
62697;BME280;48761;42.680;23.312;2023-03-17T04:58:38;95150.06;;;2.98;78.83
62697;BME280;48761;42.680;23.312;2023-03-17T05:01:04;95168.59;;;3.19;78.64
62697;BME280;48761;42.680;23.312;2023-03-17T05:03:30;95168.19;;;3.06;80.10
62697;BME280;48761;42.680;23.312;2023-03-17T05:05:56;95150.50;;;3.11;79.14
62697;BME280;48761;42.680;23.312;2023-03-17T05:08:22;95172.88;;;3.21;78.75
62697;BME280;48761;42.680;23.312;2023-03-17T05:10:49;95174.84;;;3.40;78.56
62697;BME280;48761;42.680;23.312;2023-03-17T05:13:15;95165.84;;;3.22;78.22
62697;BME280;48761;42.680;23.312;2023-03-17T05:15:49;95174.28;;;3.32;78.51
62697;BME280;48761;42.680;23.312;2023-03-17T05:18:15;95173.38;;;3.33;78.45
62697;BME280;48761;42.680;23.312;2023-03-17T05:20:41;95183.91;;;3.31;78.86
62697;BME280;48761;42.680;23.312;2023-03-17T05:23:07;95189.84;;;3.38;78.44
62697;BME280;48761;42.680;23.312;2023-03-17T05:25:33;95192.81;;;3.53;78.05
62697;BME280;48761;42.680;23.312;2023-03-17T05:27:59;95201.94;;;3.42;78.33
62697;BME280;48761;42.680;23.312;2023-03-17T05:30:25;95199.91;;;3.51;78.37
62697;BME280;48761;42.680;23.312;2023-03-17T05:32:51;95190.69;;;3.39;77.35
62697;BME280;48761;42.680;23.312;2023-03-17T05:35:18;95202.47;;;3.27;77.99
62697;BME280;48761;42.680;23.312;2023-03-17T05:37:44;95192.38;;;3.40;77.75
62697;BME280;48761;42.680;23.312;2023-03-17T05:40:10;95176.19;;;3.27;77.98
62697;BME280;48761;42.680;23.312;2023-03-17T05:42:37;95205.38;;;3.44;77.51
62697;BME280;48761;42.680;23.312;2023-03-17T05:45:04;95213.03;;;3.51;77.54
62697;BME280;48761;42.680;23.312;2023-03-17T05:47:30;95216.56;;;3.50;77.74
62697;BME280;48761;42.680;23.312;2023-03-17T05:49:56;95214.38;;;3.37;78.07
62697;BME280;48761;42.680;23.312;2023-03-17T05:52:22;95213.69;;;3.32;77.86
62697;BME280;48761;42.680;23.312;2023-03-17T05:54:48;95213.69;;;3.32;78.92
62697;BME280;48761;42.680;23.312;2023-03-17T05:57:14;95221.91;;;3.48;78.55
62697;BME280;48761;42.680;23.312;2023-03-17T05:59:40;95190.38;;;3.22;78.86
62697;BME280;48761;42.680;23.312;2023-03-17T06:02:07;95221.47;;;3.35;79.28
62697;BME280;48761;42.680;23.312;2023-03-17T06:04:33;95229.53;;;3.30;79.22
62697;BME280;48761;42.680;23.312;2023-03-17T06:06:59;95203.78;;;3.14;78.96
62697;BME280;48761;42.680;23.312;2023-03-17T06:09:25;95237.44;;;3.29;79.00
62697;BME280;48761;42.680;23.312;2023-03-17T06:11:50;95216.97;;;3.13;79.71
62697;BME280;48761;42.680;23.312;2023-03-17T06:14:16;95230.69;;;3.21;79.29
62697;BME280;48761;42.680;23.312;2023-03-17T06:16:42;95256.44;;;3.37;78.94
62697;BME280;48761;42.680;23.312;2023-03-17T06:19:08;95253.47;;;3.46;78.83
62697;BME280;48761;42.680;23.312;2023-03-17T06:21:34;95253.59;;;3.43;78.29
62697;BME280;48761;42.680;23.312;2023-03-17T06:24:00;95256.34;;;3.40;78.47
62697;BME280;48761;42.680;23.312;2023-03-17T06:26:27;95254.84;;;3.58;78.06
62697;BME280;48761;42.680;23.312;2023-03-17T06:28:53;95254.66;;;3.63;77.73
62697;BME280;48761;42.680;23.312;2023-03-17T06:31:19;95263.16;;;3.72;78.17
62697;BME280;48761;42.680;23.312;2023-03-17T06:33:44;95260.78;;;3.88;77.44
62697;BME280;48761;42.680;23.312;2023-03-17T06:36:10;95261.94;;;3.80;76.85
62697;BME280;48761;42.680;23.312;2023-03-17T06:38:36;95257.88;;;3.72;76.80
62697;BME280;48761;42.680;23.312;2023-03-17T06:41:02;95268.53;;;3.67;77.14
62697;BME280;48761;42.680;23.312;2023-03-17T06:43:28;95235.84;;;3.50;77.64
62697;BME280;48761;42.680;23.312;2023-03-17T06:45:54;95260.81;;;3.62;77.65
62697;BME280;48761;42.680;23.312;2023-03-17T06:48:20;95254.84;;;3.58;77.87
62697;BME280;48761;42.680;23.312;2023-03-17T06:50:46;95279.28;;;3.61;77.42
62697;BME280;48761;42.680;23.312;2023-03-17T06:53:12;95260.47;;;3.47;77.59
62697;BME280;48761;42.680;23.312;2023-03-17T06:55:38;95282.34;;;3.74;77.59
62697;BME280;48761;42.680;23.312;2023-03-17T06:58:04;95275.84;;;3.84;76.98
62697;BME280;48761;42.680;23.312;2023-03-17T07:00:30;95278.50;;;3.83;76.12
62697;BME280;48761;42.680;23.312;2023-03-17T07:02:56;95271.16;;;3.67;76.16
62697;BME280;48761;42.680;23.312;2023-03-17T07:05:22;95278.75;;;3.76;77.17
62697;BME280;48761;42.680;23.312;2023-03-17T07:07:48;95278.59;;;3.81;77.27
62697;BME280;48761;42.680;23.312;2023-03-17T07:10:14;95293.03;;;3.93;77.04
62697;BME280;48761;42.680;23.312;2023-03-17T07:12:40;95285.56;;;4.06;77.05
62697;BME280;48761;42.680;23.312;2023-03-17T07:15:07;95274.78;;;4.12;76.34
62697;BME280;48761;42.680;23.312;2023-03-17T07:17:33;95282.78;;;4.33;75.62
62697;BME280;48761;42.680;23.312;2023-03-17T07:19:58;95278.25;;;4.14;76.12
62697;BME280;48761;42.680;23.312;2023-03-17T07:22:24;95285.66;;;4.03;76.46
62697;BME280;48761;42.680;23.312;2023-03-17T07:24:50;95290.41;;;4.17;76.68
62697;BME280;48761;42.680;23.312;2023-03-17T07:27:16;95278.81;;;3.99;75.75
62697;BME280;48761;42.680;23.312;2023-03-17T07:29:43;95296.13;;;4.29;75.91
62697;BME280;48761;42.680;23.312;2023-03-17T07:32:09;95291.56;;;4.10;75.59
62697;BME280;48761;42.680;23.312;2023-03-17T07:34:35;95291.38;;;4.39;75.26
62697;BME280;48761;42.680;23.312;2023-03-17T07:37:02;95290.50;;;4.38;74.74
62697;BME280;48761;42.680;23.312;2023-03-17T07:39:28;95284.34;;;4.15;74.98
62697;BME280;48761;42.680;23.312;2023-03-17T07:41:55;95290.69;;;4.33;75.31
62697;BME280;48761;42.680;23.312;2023-03-17T07:44:22;95283.38;;;4.18;75.09
62697;BME280;48761;42.680;23.312;2023-03-17T07:46:48;95293.81;;;4.43;74.75
62697;BME280;48761;42.680;23.312;2023-03-17T07:49:17;95290.03;;;4.51;74.29
62697;BME280;48761;42.680;23.312;2023-03-17T07:51:46;95283.78;;;4.53;73.13
62697;BME280;48761;42.680;23.312;2023-03-17T07:54:13;95301.41;;;4.75;72.65
62697;BME280;48761;42.680;23.312;2023-03-17T07:56:39;95302.22;;;4.53;73.98
62697;BME280;48761;42.680;23.312;2023-03-17T07:59:05;95296.63;;;4.39;74.21
62697;BME280;48761;42.680;23.312;2023-03-17T08:01:32;95302.88;;;4.36;74.65
62697;BME280;48761;42.680;23.312;2023-03-17T08:03:58;95291.56;;;4.56;73.65
62697;BME280;48761;42.680;23.312;2023-03-17T08:06:24;95307.47;;;4.77;75.07
62697;BME280;48761;42.680;23.312;2023-03-17T08:08:51;95301.81;;;4.87;73.36
62697;BME280;48761;42.680;23.312;2023-03-17T08:11:17;95308.84;;;5.09;73.64
62697;BME280;48761;42.680;23.312;2023-03-17T08:13:43;95312.56;;;5.25;72.93
62697;BME280;48761;42.680;23.312;2023-03-17T08:16:09;95316.53;;;5.36;71.76
62697;BME280;48761;42.680;23.312;2023-03-17T08:18:35;95313.75;;;5.39;71.29
62697;BME280;48761;42.680;23.312;2023-03-17T08:21:01;95299.72;;;5.38;70.51
62697;BME280;48761;42.680;23.312;2023-03-17T08:23:27;95317.06;;;5.44;70.62
62697;BME280;48761;42.680;23.312;2023-03-17T08:25:58;95318.72;;;5.47;71.01
62697;BME280;48761;42.680;23.312;2023-03-17T08:28:25;95316.81;;;5.51;70.30
62697;BME280;48761;42.680;23.312;2023-03-17T08:30:50;95312.66;;;5.45;69.37
62697;BME280;48761;42.680;23.312;2023-03-17T08:33:16;95300.19;;;5.27;69.57
62697;BME280;48761;42.680;23.312;2023-03-17T08:35:42;95313.63;;;5.42;69.70
62697;BME280;48761;42.680;23.312;2023-03-17T08:38:08;95287.56;;;5.13;70.97
62697;BME280;48761;42.680;23.312;2023-03-17T08:40:35;95313.50;;;5.45;71.16
62697;BME280;48761;42.680;23.312;2023-03-17T08:43:01;95308.03;;;5.71;70.16
62697;BME280;48761;42.680;23.312;2023-03-17T08:45:27;95313.78;;;5.81;69.08
62697;BME280;48761;42.680;23.312;2023-03-17T08:47:53;95318.88;;;5.84;69.10
62697;BME280;48761;42.680;23.312;2023-03-17T08:50:21;95310.19;;;5.82;68.32
62697;BME280;48761;42.680;23.312;2023-03-17T08:52:48;95316.19;;;5.86;67.86
62697;BME280;48761;42.680;23.312;2023-03-17T08:55:15;95319.06;;;5.81;67.46
62697;BME280;48761;42.680;23.312;2023-03-17T08:57:41;95316.91;;;5.89;67.42
62697;BME280;48761;42.680;23.312;2023-03-17T09:00:08;95319.41;;;5.92;67.65
62697;BME280;48761;42.680;23.312;2023-03-17T09:02:34;95293.66;;;5.36;67.33
62697;BME280;48761;42.680;23.312;2023-03-17T09:05:00;95315.63;;;5.79;68.13
62697;BME280;48761;42.680;23.312;2023-03-17T09:07:26;95318.19;;;5.80;67.98
62697;BME280;48761;42.680;23.312;2023-03-17T09:09:52;95286.59;;;5.79;67.29
62697;BME280;48761;42.680;23.312;2023-03-17T09:12:18;95316.78;;;5.92;67.12
62697;BME280;48761;42.680;23.312;2023-03-17T09:14:44;95326.09;;;6.01;67.10
62697;BME280;48761;42.680;23.312;2023-03-17T09:17:10;95321.81;;;5.57;68.43
62697;BME280;48761;42.680;23.312;2023-03-17T09:19:36;95326.28;;;5.34;67.65
62697;BME280;48761;42.680;23.312;2023-03-17T09:22:02;95305.94;;;5.58;67.27
62697;BME280;48761;42.680;23.312;2023-03-17T09:24:28;95329.66;;;5.37;67.95
62697;BME280;48761;42.680;23.312;2023-03-17T09:26:54;95322.44;;;5.41;67.67
62697;BME280;48761;42.680;23.312;2023-03-17T09:29:20;95293.81;;;5.33;67.18
62697;BME280;48761;42.680;23.312;2023-03-17T09:31:46;95317.22;;;5.19;66.54
62697;BME280;48761;42.680;23.312;2023-03-17T09:34:12;95324.25;;;4.97;66.62
62697;BME280;48761;42.680;23.312;2023-03-17T09:36:38;95316.97;;;5.25;67.52
62697;BME280;48761;42.680;23.312;2023-03-17T09:39:04;95321.00;;;5.34;67.47
62697;BME280;48761;42.680;23.312;2023-03-17T09:44:57;95328.53;;;6.06;64.99
62697;BME280;48761;42.680;23.312;2023-03-17T09:47:35;95332.94;;;6.05;63.54
62697;BME280;48761;42.680;23.312;2023-03-17T09:50:28;95331.38;;;5.59;64.10
62697;BME280;48761;42.680;23.312;2023-03-17T09:52:56;95330.38;;;5.62;65.24
62697;BME280;48761;42.680;23.312;2023-03-17T09:55:29;95311.91;;;5.41;65.38
62697;BME280;48761;42.680;23.312;2023-03-17T09:57:56;95329.84;;;5.75;65.19
62697;BME280;48761;42.680;23.312;2023-03-17T10:00:24;95336.97;;;6.14;64.13
62697;BME280;48761;42.680;23.312;2023-03-17T10:02:50;95336.16;;;6.33;63.77
62697;BME280;48761;42.680;23.312;2023-03-17T10:05:23;95333.84;;;6.45;63.26
62697;BME280;48761;42.680;23.312;2023-03-17T10:08:11;95325.53;;;6.54;63.14
62697;BME280;48761;42.680;23.312;2023-03-17T10:15:38;95319.31;;;5.75;63.44
62697;BME280;48761;42.680;23.312;2023-03-17T10:18:12;95326.47;;;5.92;63.06
62697;BME280;48761;42.680;23.312;2023-03-17T10:20:51;95328.13;;;6.15;62.03
62697;BME280;48761;42.680;23.312;2023-03-17T10:23:22;95320.06;;;5.98;62.47
62697;BME280;48761;42.680;23.312;2023-03-17T10:25:51;95316.91;;;5.89;62.94
62697;BME280;48761;42.680;23.312;2023-03-17T10:28:38;95327.72;;;6.25;62.08
62697;BME280;48761;42.680;23.312;2023-03-17T10:31:28;95297.41;;;6.34;61.99
62697;BME280;48761;42.680;23.312;2023-03-17T10:33:55;95314.97;;;6.54;61.56
62697;BME280;48761;42.680;23.312;2023-03-17T10:36:35;95321.44;;;6.66;59.98
62697;BME280;48761;42.680;23.312;2023-03-17T10:39:04;95317.59;;;6.73;59.47
62697;BME280;48761;42.680;23.312;2023-03-17T10:41:38;95316.84;;;6.89;60.23
62697;BME280;48761;42.680;23.312;2023-03-17T10:44:08;95317.84;;;6.87;60.78
62697;BME280;48761;42.680;23.312;2023-03-17T10:46:36;95312.34;;;6.91;61.15
62697;BME280;48761;42.680;23.312;2023-03-17T10:49:08;95308.69;;;6.94;59.74
62697;BME280;48761;42.680;23.312;2023-03-17T10:51:36;95313.63;;;7.02;59.89
62697;BME280;48761;42.680;23.312;2023-03-17T10:54:10;95310.25;;;6.98;59.18
62697;BME280;48761;42.680;23.312;2023-03-17T10:56:41;95295.31;;;6.79;58.57
62697;BME280;48761;42.680;23.312;2023-03-17T10:59:16;95295.53;;;6.36;59.28
62697;BME280;48761;42.680;23.312;2023-03-17T11:01:48;95263.50;;;6.24;60.75
62697;BME280;48761;42.680;23.312;2023-03-17T11:04:33;95282.03;;;6.61;60.29
62697;BME280;48761;42.680;23.312;2023-03-17T11:07:06;95273.81;;;6.68;59.14
62697;BME280;48761;42.680;23.312;2023-03-17T11:09:36;95270.03;;;6.73;59.99
62697;BME280;48761;42.680;23.312;2023-03-17T11:12:05;95248.81;;;6.93;59.05
62697;BME280;48761;42.680;23.312;2023-03-17T11:14:32;95270.09;;;7.09;58.33
62697;BME280;48761;42.680;23.312;2023-03-17T11:17:02;95270.97;;;7.27;57.62
62697;BME280;48761;42.680;23.312;2023-03-17T11:22:13;95283.22;;;7.11;57.73
62697;BME280;48761;42.680;23.312;2023-03-17T11:24:58;95268.66;;;6.84;59.15
62697;BME280;48761;42.680;23.312;2023-03-17T11:27:30;95274.31;;;6.76;59.29
62697;BME280;48761;42.680;23.312;2023-03-17T11:32:59;95261.00;;;6.78;57.89
62697;BME280;48761;42.680;23.312;2023-03-17T11:35:53;95274.03;;;7.18;57.36
62697;BME280;48761;42.680;23.312;2023-03-17T11:46:50;95259.56;;;7.61;55.18
62697;BME280;48761;42.680;23.312;2023-03-17T11:49:35;95264.78;;;7.80;54.63
62697;BME280;48761;42.680;23.312;2023-03-17T11:52:24;95266.84;;;7.91;55.13
62697;BME280;48761;42.680;23.312;2023-03-17T11:55:19;95261.28;;;8.14;54.06
62697;BME280;48761;42.680;23.312;2023-03-17T12:00:23;95250.91;;;8.09;54.61
62697;BME280;48761;42.680;23.312;2023-03-17T12:06:02;95252.47;;;8.29;53.15
62697;BME280;48761;42.680;23.312;2023-03-17T12:08:53;95245.38;;;8.30;52.38
62697;BME280;48761;42.680;23.312;2023-03-17T12:11:26;95225.22;;;8.27;52.25
62697;BME280;48761;42.680;23.312;2023-03-17T12:14:19;95222.06;;;8.21;52.27
62697;BME280;48761;42.680;23.312;2023-03-17T12:22:30;95218.38;;;8.39;51.94
62697;BME280;48761;42.680;23.312;2023-03-17T12:25:09;95236.28;;;8.02;52.84
62697;BME280;48761;42.680;23.312;2023-03-17T12:28:02;95236.69;;;7.78;52.35
62697;BME280;48761;42.680;23.312;2023-03-17T12:30:52;95231.91;;;7.15;52.31
62697;BME280;48761;42.680;23.312;2023-03-17T12:33:29;95232.81;;;6.96;53.39
62697;BME280;48761;42.680;23.312;2023-03-17T12:35:59;95202.06;;;7.13;53.33
62697;BME280;48761;42.680;23.312;2023-03-17T12:41:17;95235.94;;;7.40;53.73
62697;BME280;48761;42.680;23.312;2023-03-17T12:43:58;95235.81;;;7.43;53.40
62697;BME280;48761;42.680;23.312;2023-03-17T12:46:59;95218.69;;;7.33;53.43
62697;BME280;48761;42.680;23.312;2023-03-17T12:54:48;95227.88;;;7.08;54.63
62697;BME280;48761;42.680;23.312;2023-03-17T12:57:21;95225.22;;;7.25;54.77
62697;BME280;48761;42.680;23.312;2023-03-17T12:59:49;95229.09;;;7.36;54.92
62697;BME280;48761;42.680;23.312;2023-03-17T13:04:56;95216.44;;;7.25;54.43
62697;BME280;48761;42.680;23.312;2023-03-17T13:07:31;95228.16;;;7.19;54.91
62697;BME280;48761;42.680;23.312;2023-03-17T13:20:43;95219.59;;;6.96;53.06
62697;BME280;48761;42.680;23.312;2023-03-17T13:35:46;95224.47;;;6.68;54.33
62697;BME280;48761;42.680;23.312;2023-03-17T13:38:31;95227.63;;;6.57;53.87
62697;BME280;48761;42.680;23.312;2023-03-17T13:41:14;95218.50;;;6.45;52.51
62697;BME280;48761;42.680;23.312;2023-03-17T13:46:48;95203.97;;;6.36;54.57
62697;BME280;48761;42.680;23.312;2023-03-17T13:51:49;95199.56;;;6.37;54.72
62697;BME280;48761;42.680;23.312;2023-03-17T13:54:32;95226.06;;;6.53;55.85
62697;BME280;48761;42.680;23.312;2023-03-17T14:02:18;95214.94;;;6.27;56.99
62697;BME280;48761;42.680;23.312;2023-03-17T14:04:51;95224.09;;;6.39;56.69
62697;BME280;48761;42.680;23.312;2023-03-17T14:07:21;95198.66;;;5.98;57.39
62697;BME280;48761;42.680;23.312;2023-03-17T14:09:50;95231.78;;;6.05;58.16
62697;BME280;48761;42.680;23.312;2023-03-17T14:12:24;95217.28;;;5.94;58.86
62697;BME280;48761;42.680;23.312;2023-03-17T14:15:04;95205.00;;;5.74;59.36
62697;BME280;48761;42.680;23.312;2023-03-17T14:17:43;95234.00;;;5.74;59.91
62697;BME280;48761;42.680;23.312;2023-03-17T14:20:23;95241.16;;;5.72;60.17
62697;BME280;48761;42.680;23.312;2023-03-17T14:22:57;95233.22;;;5.72;60.21
62697;BME280;48761;42.680;23.312;2023-03-17T14:25:26;95242.59;;;5.79;59.78
62697;BME280;48761;42.680;23.312;2023-03-17T14:27:56;95224.31;;;5.75;59.74
62697;BME280;48761;42.680;23.312;2023-03-17T14:30:29;95242.03;;;5.92;59.25